Flight Track Log - Related Links

Times and Time Zones

All times are in EDT time to prevent confusion due to time zone crossing. See the EGF2825 flight status page for this flight to view local times or setup timezone preferences in your user account.

Time Position Orientation Groundspeed Altitude Reporting Facility
EDT Latitude Longitude Course Direction KTS MPH feet Rate Location/Type
Tue 11:41:00 PM 41.9758 -88.2647 269° West  Level Estimated
Tue 11:42:00 PM 41.9744 -88.3838 269° West  Level Estimated
Tue 11:43:00 PM 41.9728 -88.5029 269° West  Level Estimated
Tue 11:44:00 PM 41.9711 -88.6220 269° West  Level Estimated
Tue 11:45:00 PM 41.9693 -88.7411 269° West  Level Estimated
Tue 11:46:00 PM 41.9674 -88.8601 269° West  Level Estimated
Tue 11:47:00 PM 41.9654 -88.9792 269° West  Level Estimated
Tue 11:48:00 PM 41.9632 -89.0983 269° West  Level Estimated
Tue 11:49:00 PM 41.9609 -89.2173 269° West  Level Estimated
Tue 11:50:00 PM 41.9585 -89.3364 268° West  Level Estimated
Tue 11:51:00 PM 41.9560 -89.4554 268° West  Level Estimated
Tue 11:52:00 PM 41.9533 -89.5744 268° West  Level Estimated
Tue 11:53:00 PM 41.9506 -89.6934 268° West  Level Estimated
Tue 11:54:00 PM 41.9477 -89.8124 268° West  Level Estimated
Tue 11:55:00 PM 41.9446 -89.9314 268° West  Level Estimated
Tue 11:56:00 PM 41.9415 -90.0504 268° West  Level Estimated
Tue 11:57:00 PM 41.9382 -90.1694 268° West  Level Estimated
Tue 11:58:00 PM 41.9348 -90.2883 268° West  Level Estimated
Tue 11:59:00 PM 41.9313 -90.4072 268° West  Level Estimated
Wed 12:00:00 AM 41.9277 -90.5262 268° West  Level Estimated
Wed 12:01:00 AM 41.9239 -90.6451 268° West  Level Estimated
Wed 12:02:00 AM 41.9200 -90.7640 268° West  Level Estimated
Wed 12:03:00 AM 41.9160 -90.8829 267° West  Level Estimated
Wed 12:04:00 AM 41.9119 -91.0017 267° West  Level Estimated
Wed 12:05:00 AM 41.9076 -91.1206 267° West  Level Estimated
Wed 12:06:00 AM 41.9033 -91.2394 267° West  Level Estimated
Wed 12:07:00 AM 41.8988 -91.3583 267° West  Level Estimated
Wed 12:08:00 AM 41.8941 -91.4771 267° West  Level Estimated
Wed 12:09:00 AM 41.8894 -91.5959 267° West  Level Estimated
Wed 12:10:00 AM 41.8847 -91.7108 267° West  Level Estimated
Wed 12:11:00 AM 41.8847 -91.7108 North  Level Estimated
Wed 12:12:00 AM 41.8847 -91.7108 North  Level Estimated

Login

Don't have an account? Register now (free) for customized features, flight alerts, and more!